createdAt,value
2023-11-19T00:00:30.141Z,100.00
2023-11-19T00:02:57.616Z,100.00
2023-11-19T00:05:24.977Z,100.00
2023-11-19T00:07:52.184Z,100.00
2023-11-19T00:10:22.416Z,100.00
2023-11-19T00:12:50.887Z,100.00
2023-11-19T00:15:20.050Z,100.00
2023-11-19T00:17:49.933Z,100.00
2023-11-19T00:20:20.012Z,100.00
2023-11-19T00:22:53.081Z,100.00
2023-11-19T00:25:23.159Z,100.00
2023-11-19T00:27:52.818Z,100.00
2023-11-19T00:30:20.226Z,100.00
2023-11-19T00:32:47.560Z,100.00
2023-11-19T00:35:16.121Z,100.00
2023-11-19T00:37:44.216Z,100.00
2023-11-19T00:40:12.577Z,100.00
2023-11-19T00:42:40.164Z,100.00
2023-11-19T00:45:11.521Z,100.00
2023-11-19T00:47:40.328Z,100.00
2023-11-19T00:50:12.741Z,100.00
2023-11-19T00:52:40.432Z,100.00
2023-11-19T00:55:08.803Z,100.00
2023-11-19T00:57:38.515Z,100.00
2023-11-19T01:00:29.391Z,100.00
2023-11-19T01:02:56.692Z,100.00
2023-11-19T01:05:24.235Z,100.00
2023-11-19T01:07:55.116Z,100.00
2023-11-19T01:10:22.945Z,100.00
2023-11-19T01:12:50.517Z,100.00
2023-11-19T01:15:20.184Z,100.00
2023-11-19T01:20:18.499Z,100.00
2023-11-19T01:22:45.987Z,100.00
2023-11-19T01:25:15.664Z,100.00
2023-11-19T01:27:43.093Z,100.00
2023-11-19T01:30:14.433Z,100.00
2023-11-19T01:32:41.981Z,100.00
2023-11-19T01:35:09.504Z,100.00
2023-11-19T01:37:37.839Z,100.00
2023-11-19T01:40:09.108Z,100.00
2023-11-19T01:42:40.219Z,100.00
2023-11-19T01:45:09.635Z,100.00
2023-11-19T01:47:38.045Z,100.00
2023-11-19T01:50:09.323Z,100.00
2023-11-19T01:52:39.042Z,100.00
2023-11-19T01:55:08.931Z,100.00
2023-11-19T01:57:39.182Z,100.00
2023-11-19T02:00:13.338Z,100.00
2023-11-19T02:02:46.122Z,100.00
2023-11-19T02:05:15.010Z,100.00
2023-11-19T02:07:42.215Z,100.00
2023-11-19T02:10:14.362Z,100.00
2023-11-19T02:12:46.039Z,100.00
2023-11-19T02:15:13.657Z,100.00
2023-11-19T02:17:41.145Z,100.00
2023-11-19T02:20:10.899Z,100.00
2023-11-19T02:22:38.455Z,100.00
2023-11-19T02:25:09.238Z,100.00
2023-11-19T02:28:00.947Z,100.00
2023-11-19T02:30:29.626Z,100.00
2023-11-19T02:32:59.016Z,100.00
2023-11-19T02:35:27.498Z,100.00
2023-11-19T02:37:58.757Z,100.00
2023-11-19T02:40:26.397Z,100.00
2023-11-19T02:42:55.683Z,100.00
2023-11-19T02:45:27.328Z,100.00
2023-11-19T02:47:56.217Z,100.00
2023-11-19T02:50:26.944Z,100.00
2023-11-19T02:52:58.012Z,100.00
2023-11-19T02:55:26.702Z,100.00
2023-11-19T02:57:54.947Z,100.00
2023-11-19T03:00:33.447Z,100.00
2023-11-19T03:03:01.370Z,100.00
2023-11-19T03:05:31.951Z,100.00
2023-11-19T03:07:59.159Z,100.00
2023-11-19T03:57:06.999Z,100.00
2023-11-19T03:59:34.661Z,100.00
2023-11-19T04:02:02.145Z,100.00
2023-11-19T04:04:30.798Z,100.00
2023-11-19T04:06:59.187Z,100.00
2023-11-19T04:09:26.318Z,100.00
2023-11-19T04:11:53.652Z,100.00
2023-11-19T04:14:20.797Z,100.00
2023-11-19T04:16:47.984Z,100.00
2023-11-19T04:19:15.214Z,100.00
2023-11-19T04:21:43.551Z,100.00
2023-11-19T04:24:15.051Z,100.00
2023-11-19T04:26:46.507Z,100.00
2023-11-19T04:29:18.435Z,100.00
2023-11-19T04:31:47.001Z,100.00
2023-11-19T04:34:14.355Z,100.00
2023-11-19T04:36:41.764Z,100.00
2023-11-19T04:39:16.932Z,100.00
2023-11-19T04:41:50.912Z,100.00
2023-11-19T04:44:18.760Z,100.00
2023-11-19T04:46:46.997Z,100.00
2023-11-19T04:49:15.540Z,100.00
2023-11-19T04:51:43.741Z,100.00
2023-11-19T04:54:11.707Z,100.00
2023-11-19T04:56:38.967Z,100.00
2023-11-19T04:59:10.130Z,100.00
2023-11-19T05:01:37.364Z,100.00
2023-11-19T05:04:04.854Z,100.00
2023-11-19T05:06:32.750Z,100.00
2023-11-19T05:09:09.038Z,100.00
2023-11-19T05:11:36.599Z,100.00
2023-11-19T05:14:07.400Z,100.00
2023-11-19T05:16:34.668Z,100.00
2023-11-19T05:19:02.044Z,100.00
2023-11-19T05:21:29.223Z,100.00
2023-11-19T05:23:56.570Z,100.00
2023-11-19T05:26:25.260Z,100.00
2023-11-19T05:28:52.632Z,100.00
2023-11-19T05:31:20.032Z,100.00
2023-11-19T05:33:47.308Z,100.00
2023-11-19T05:36:15.003Z,100.00
2023-11-19T05:38:42.170Z,100.00
2023-11-19T05:41:09.693Z,100.00
2023-11-19T05:43:36.972Z,100.00
2023-11-19T05:46:04.614Z,100.00
2023-11-19T05:48:48.051Z,100.00
2023-11-19T05:51:18.631Z,100.00
2023-11-19T05:53:49.246Z,100.00
2023-11-19T05:56:17.385Z,100.00
2023-11-19T05:58:46.336Z,100.00
2023-11-19T06:01:16.441Z,100.00
2023-11-19T06:03:44.938Z,100.00
2023-11-19T06:06:13.418Z,100.00
2023-11-19T06:08:40.782Z,100.00
2023-11-19T06:11:08.991Z,100.00
2023-11-19T06:13:36.150Z,100.00
2023-11-19T06:16:04.310Z,100.00
2023-11-19T06:18:32.789Z,100.00
2023-11-19T06:20:59.971Z,100.00
2023-11-19T06:23:26.957Z,100.00
2023-11-19T06:25:54.494Z,100.00
2023-11-19T06:28:21.792Z,100.00
2023-11-19T06:30:49.782Z,100.00
2023-11-19T06:33:17.408Z,100.00
2023-11-19T07:49:39.758Z,99.05
2023-11-19T07:52:21.588Z,100.00
2023-11-19T07:54:51.533Z,98.26
2023-11-19T07:57:19.562Z,99.36
2023-11-19T07:59:47.006Z,99.56
2023-11-19T08:02:15.975Z,98.99
2023-11-19T08:04:46.474Z,99.73
2023-11-19T08:07:20.655Z,99.76
2023-11-19T08:09:51.434Z,100.00
2023-11-19T08:12:18.941Z,100.00
2023-11-19T08:14:46.185Z,100.00
2023-11-19T08:17:16.219Z,97.70
2023-11-19T08:19:43.392Z,95.75
2023-11-19T08:22:10.821Z,95.47
2023-11-19T08:24:38.107Z,94.20
2023-11-19T08:27:06.168Z,94.17
2023-11-19T08:29:33.566Z,92.79
2023-11-19T08:32:03.649Z,90.66
2023-11-19T08:34:31.127Z,91.29
2023-11-19T08:36:58.482Z,90.95
2023-11-19T08:39:25.750Z,89.15
2023-11-19T08:41:52.974Z,89.87
2023-11-19T08:44:21.001Z,88.69
2023-11-19T08:46:50.343Z,88.29
2023-11-19T08:49:17.954Z,88.93
2023-11-19T08:51:46.694Z,86.61
2023-11-19T08:54:14.387Z,87.16
2023-11-19T08:56:44.020Z,86.26
2023-11-19T08:59:11.475Z,86.15
2023-11-19T09:01:40.237Z,87.55
2023-11-19T09:04:07.991Z,88.02
2023-11-19T09:06:40.539Z,88.05
2023-11-19T09:09:10.979Z,89.58
2023-11-19T09:11:38.883Z,89.15
2023-11-19T09:14:06.408Z,87.25
2023-11-19T09:16:39.698Z,87.83
2023-11-19T09:19:09.372Z,87.17
2023-11-19T09:21:39.906Z,86.17
2023-11-19T09:24:09.056Z,86.10
2023-11-19T09:26:51.592Z,85.10
2023-11-19T09:29:19.230Z,84.42
2023-11-19T09:31:49.150Z,83.58
2023-11-19T09:34:16.397Z,81.53
2023-11-19T09:36:45.527Z,81.36
2023-11-19T09:39:16.258Z,81.71
2023-11-19T09:41:43.656Z,81.09
2023-11-19T09:44:13.227Z,82.64
2023-11-19T09:46:42.740Z,82.28
2023-11-19T09:49:11.472Z,81.93
2023-11-19T09:51:39.083Z,82.49
2023-11-19T09:54:08.389Z,82.21
2023-11-19T09:56:39.850Z,81.21
2023-11-19T09:59:11.643Z,81.44
2023-11-19T10:01:41.905Z,80.97
2023-11-19T10:04:16.892Z,81.72
2023-11-19T10:06:46.894Z,81.05
2023-11-19T10:09:16.724Z,81.01
2023-11-19T10:11:44.123Z,82.17
2023-11-19T10:14:15.804Z,82.16
2023-11-19T10:16:44.110Z,82.93
2023-11-19T10:19:21.683Z,82.85
2023-11-19T10:21:56.399Z,81.60
2023-11-19T10:24:38.425Z,81.92
2023-11-19T10:27:10.678Z,81.43
2023-11-19T10:29:39.524Z,81.04
2023-11-19T10:32:24.515Z,81.45
2023-11-19T10:35:06.706Z,80.70
2023-11-19T10:37:36.666Z,81.29
2023-11-19T10:40:06.875Z,79.49
2023-11-19T10:42:34.430Z,78.39
2023-11-19T10:45:05.931Z,79.18
2023-11-19T10:50:08.096Z,79.46
2023-11-19T10:52:38.289Z,79.01
2023-11-19T10:55:09.750Z,79.49
2023-11-19T10:57:46.440Z,79.29
2023-11-19T11:00:20.725Z,80.25
2023-11-19T11:02:56.358Z,78.40
2023-11-19T11:05:25.451Z,77.81
2023-11-19T11:07:54.031Z,77.62
2023-11-19T11:10:27.398Z,77.54
2023-11-19T11:13:00.579Z,77.92
2023-11-19T11:15:32.834Z,77.89
2023-11-19T11:18:04.355Z,78.04
2023-11-19T11:20:32.877Z,76.61
2023-11-19T11:23:26.084Z,77.31
2023-11-19T11:26:08.738Z,76.93
2023-11-19T11:28:39.041Z,77.81
2023-11-19T11:31:38.722Z,77.40
2023-11-19T11:34:26.531Z,76.81
2023-11-19T11:37:08.481Z,76.29
2023-11-19T11:39:36.680Z,75.59
2023-11-19T11:42:20.293Z,75.94
2023-11-19T11:45:10.866Z,75.49
2023-11-19T11:47:44.708Z,75.17
2023-11-19T11:50:20.376Z,75.19
2023-11-19T11:53:00.702Z,75.51
2023-11-19T11:55:49.632Z,75.43
2023-11-19T11:58:33.517Z,75.22
2023-11-19T12:01:07.154Z,75.83
2023-11-19T12:03:35.600Z,75.66
2023-11-19T12:06:04.555Z,76.07
2023-11-19T12:08:53.291Z,75.59
2023-11-19T12:11:22.994Z,76.43
2023-11-19T12:14:00.074Z,75.91
2023-11-19T12:16:29.780Z,76.20
2023-11-19T12:18:57.792Z,77.22
2023-11-19T12:21:32.835Z,77.13
2023-11-19T12:24:09.221Z,77.65
2023-11-19T12:26:40.684Z,77.16
2023-11-19T12:29:10.435Z,77.34
2023-11-19T12:31:39.254Z,77.96
2023-11-19T12:34:08.469Z,77.39
2023-11-19T12:36:36.587Z,77.56
2023-11-19T12:39:05.260Z,77.58
2023-11-19T12:41:32.733Z,78.35
2023-11-19T12:44:13.913Z,78.66
2023-11-19T12:46:41.725Z,78.39
2023-11-19T12:49:12.765Z,78.28
2023-11-19T12:51:42.669Z,78.99
2023-11-19T12:54:38.360Z,78.82
2023-11-19T12:57:07.072Z,79.46
2023-11-19T12:59:34.584Z,80.11
2023-11-19T13:02:02.189Z,79.90
2023-11-19T13:04:34.895Z,80.54
2023-11-19T13:07:06.097Z,80.87
2023-11-19T13:09:34.140Z,81.24
2023-11-19T13:12:14.805Z,80.62
2023-11-19T13:14:43.824Z,80.29
2023-11-19T13:17:16.275Z,80.90
2023-11-19T13:19:44.462Z,80.17
2023-11-19T13:22:11.972Z,79.23
2023-11-19T13:24:41.825Z,79.69
2023-11-19T13:27:10.631Z,79.88
2023-11-19T13:29:38.078Z,80.15
2023-11-19T13:32:07.171Z,80.34
2023-11-19T13:34:34.794Z,81.76
2023-11-19T13:37:02.118Z,81.10
2023-11-19T13:39:29.708Z,81.04
2023-11-19T13:42:13.399Z,81.68
2023-11-19T13:44:43.042Z,82.01
2023-11-19T13:47:15.296Z,82.44
2023-11-19T13:49:42.764Z,82.70
2023-11-19T13:52:10.209Z,83.34
2023-11-19T13:54:39.070Z,83.61
2023-11-19T13:57:06.733Z,83.39
2023-11-19T13:59:34.111Z,83.09
2023-11-19T14:02:01.643Z,83.14
2023-11-19T14:04:29.451Z,83.29
2023-11-19T14:06:57.158Z,83.28
2023-11-19T14:09:24.713Z,82.86
2023-11-19T14:11:54.480Z,82.28
2023-11-19T14:14:22.343Z,83.12
2023-11-19T14:16:52.215Z,82.96
2023-11-19T14:19:19.811Z,83.84
2023-11-19T14:21:49.041Z,84.13
2023-11-19T14:24:16.506Z,84.49
2023-11-19T14:26:51.318Z,85.10
2023-11-19T14:29:19.315Z,84.56
2023-11-19T14:31:46.715Z,83.88
2023-11-19T14:34:14.138Z,84.51
2023-11-19T14:36:41.573Z,84.38
2023-11-19T14:39:09.004Z,83.54
2023-11-19T14:41:36.740Z,82.99
2023-11-19T14:44:05.161Z,82.89
2023-11-19T14:46:33.176Z,83.50
2023-11-19T14:49:01.059Z,83.83
2023-11-19T14:51:31.074Z,84.03
2023-11-19T14:53:59.506Z,86.15
2023-11-19T14:56:27.056Z,86.88
2023-11-19T14:58:54.590Z,87.00
2023-11-19T15:01:22.418Z,88.77
2023-11-19T15:06:26.823Z,93.11
2023-11-19T15:08:57.854Z,95.37
2023-11-19T15:11:27.794Z,95.64
2023-11-19T15:13:55.546Z,96.50
2023-11-19T15:16:38.447Z,96.42
2023-11-19T15:19:10.036Z,95.66
2023-11-19T15:21:38.043Z,94.80
2023-11-19T15:24:09.038Z,94.23
2023-11-19T15:26:37.420Z,92.74
2023-11-19T15:31:48.677Z,91.36
2023-11-19T15:34:17.057Z,90.65
2023-11-19T15:36:51.456Z,90.26
2023-11-19T15:39:28.080Z,90.84
2023-11-19T15:41:57.907Z,89.45
2023-11-19T15:44:26.734Z,88.70
2023-11-19T15:46:55.634Z,87.90
2023-11-19T15:49:23.954Z,87.69
2023-11-19T15:54:59.804Z,87.68
2023-11-19T15:57:28.309Z,87.78
2023-11-19T16:00:01.049Z,87.11
2023-11-19T16:02:29.874Z,88.08
2023-11-19T16:04:58.528Z,88.17
2023-11-19T16:07:39.332Z,88.70
2023-11-19T16:10:10.846Z,88.26
2023-11-19T16:12:38.871Z,87.75
2023-11-19T16:15:36.311Z,87.43
2023-11-19T16:18:04.964Z,86.81
2023-11-19T16:20:42.964Z,87.43
2023-11-19T16:25:52.670Z,85.99
2023-11-19T16:31:04.816Z,86.25
2023-11-19T16:33:46.692Z,85.96
2023-11-19T16:36:19.409Z,85.50
2023-11-19T16:38:51.775Z,85.39
2023-11-19T16:41:36.435Z,85.21
2023-11-19T16:44:10.870Z,85.79
2023-11-19T16:46:39.064Z,85.01
2023-11-19T16:49:08.995Z,84.85
2023-11-19T16:51:42.041Z,83.95
2023-11-19T16:54:13.885Z,85.06
2023-11-19T16:56:46.045Z,83.86
2023-11-19T16:59:17.142Z,83.10
2023-11-19T17:01:48.991Z,83.55
2023-11-19T17:04:29.013Z,83.82
2023-11-19T17:07:01.691Z,83.48
2023-11-19T17:09:31.765Z,83.87
2023-11-19T17:12:01.478Z,84.12
2023-11-19T17:17:06.015Z,85.07
2023-11-19T17:19:33.925Z,85.14
2023-11-19T17:22:04.248Z,84.82
2023-11-19T17:24:34.839Z,84.81
2023-11-19T17:27:06.266Z,85.67
2023-11-19T17:29:40.448Z,85.74
2023-11-19T17:32:40.518Z,86.09
2023-11-19T17:35:10.520Z,85.99
2023-11-19T17:37:56.840Z,85.26
2023-11-19T17:40:27.850Z,84.78
2023-11-19T17:42:58.315Z,85.20
2023-11-19T17:45:26.678Z,84.57
2023-11-19T17:47:55.146Z,85.10
2023-11-19T17:50:26.091Z,85.95
2023-11-19T17:52:55.558Z,86.10
2023-11-19T17:55:23.583Z,86.53
2023-11-19T17:57:52.780Z,86.77
2023-11-19T18:00:20.702Z,86.49
2023-11-19T18:02:55.942Z,86.83
2023-11-19T18:05:32.330Z,86.35
2023-11-19T18:08:05.801Z,86.58
2023-11-19T18:10:48.904Z,87.24
2023-11-19T18:13:24.722Z,87.18
2023-11-19T18:16:04.569Z,88.82
2023-11-19T18:18:35.446Z,87.71
2023-11-19T18:21:45.598Z,88.03
2023-11-19T18:24:02.831Z,87.20
2023-11-19T18:29:07.030Z,87.40
2023-11-19T18:31:38.269Z,87.76
2023-11-19T18:34:09.955Z,87.87
2023-11-19T18:36:38.459Z,88.62
2023-11-19T18:39:17.157Z,87.48
2023-11-19T18:41:53.520Z,87.41
2023-11-19T18:44:26.252Z,87.27
2023-11-19T18:46:54.081Z,87.37
2023-11-19T18:49:36.193Z,87.34
2023-11-19T18:52:09.894Z,87.66
2023-11-19T18:54:52.167Z,86.91
2023-11-19T18:57:31.955Z,87.46
2023-11-19T19:00:02.000Z,87.59
2023-11-19T19:02:32.575Z,86.94
2023-11-19T19:05:00.856Z,87.64
2023-11-19T19:07:32.436Z,87.64
2023-11-19T19:10:07.023Z,87.16
2023-11-19T19:12:46.766Z,87.23
2023-11-19T19:15:17.656Z,87.39
2023-11-19T19:17:45.930Z,88.65
2023-11-19T19:20:14.488Z,87.78
2023-11-19T19:22:47.731Z,88.03
2023-11-19T19:25:22.835Z,87.78
2023-11-19T19:28:20.428Z,87.73
2023-11-19T19:30:44.948Z,88.12
2023-11-19T19:33:16.708Z,88.14
2023-11-19T19:35:46.845Z,87.71
2023-11-19T19:38:19.522Z,87.14
2023-11-19T19:40:50.961Z,87.50
2023-11-19T19:43:27.115Z,88.07
2023-11-19T19:45:56.542Z,87.96
2023-11-19T19:48:26.984Z,87.98
2023-11-19T19:50:54.231Z,87.53
2023-11-19T19:53:21.941Z,87.39
2023-11-19T19:55:52.460Z,87.30
2023-11-19T19:58:19.805Z,87.07
2023-11-19T20:00:47.847Z,87.38
2023-11-19T20:03:16.679Z,87.36
2023-11-19T20:05:45.621Z,87.41
2023-11-19T20:08:13.069Z,86.68
2023-11-19T20:10:42.970Z,86.11
2023-11-19T20:13:19.148Z,87.00
2023-11-19T20:15:56.809Z,87.06
2023-11-19T20:18:26.026Z,86.78
2023-11-19T20:21:25.194Z,87.12
2023-11-19T20:24:04.338Z,86.94
2023-11-19T20:26:35.349Z,86.99
2023-11-19T20:31:35.713Z,87.09
2023-11-19T20:34:03.176Z,87.81
2023-11-19T20:36:33.604Z,87.65
2023-11-19T20:39:00.872Z,87.36
2023-11-19T20:41:31.265Z,87.86
2023-11-19T20:44:00.349Z,88.06
2023-11-19T20:46:27.789Z,88.12
2023-11-19T20:48:57.557Z,88.48
2023-11-19T20:51:30.532Z,88.87
2023-11-19T20:54:00.652Z,89.03
2023-11-19T20:56:30.315Z,88.65
2023-11-19T20:59:02.274Z,88.48
2023-11-19T21:01:29.742Z,88.55
2023-11-19T21:03:57.599Z,89.10
2023-11-19T21:06:24.928Z,88.89
2023-11-19T21:08:52.425Z,88.17
2023-11-19T21:11:20.886Z,88.98
2023-11-19T21:13:48.751Z,88.48
2023-11-19T21:16:18.478Z,88.30
2023-11-19T21:18:45.860Z,88.11
2023-11-19T21:21:15.655Z,88.84
2023-11-19T21:23:42.899Z,89.32
2023-11-19T21:26:13.197Z,90.63
2023-11-19T21:28:40.666Z,92.03
2023-11-19T21:31:08.488Z,92.97
2023-11-19T21:33:35.707Z,93.75
2023-11-19T21:36:06.022Z,95.63
2023-11-19T21:38:33.260Z,97.12
2023-11-19T21:41:05.746Z,98.53
2023-11-19T21:43:34.606Z,100.00
2023-11-19T21:46:01.929Z,100.00
2023-11-19T21:48:29.411Z,100.00
2023-11-19T21:50:57.665Z,100.00
2023-11-19T21:53:24.903Z,100.00
2023-11-19T21:58:39.170Z,100.00
2023-11-19T22:01:09.264Z,100.00
2023-11-19T22:03:38.229Z,100.00
2023-11-19T22:06:05.788Z,100.00
2023-11-19T22:08:33.511Z,100.00
2023-11-19T22:11:00.751Z,100.00
2023-11-19T22:13:28.096Z,100.00
2023-11-19T22:15:55.349Z,100.00
2023-11-19T22:18:22.757Z,100.00
2023-11-19T22:20:49.912Z,100.00
2023-11-19T22:23:17.186Z,100.00
2023-11-19T22:25:44.366Z,100.00
2023-11-19T22:28:11.775Z,100.00
2023-11-19T22:30:42.696Z,100.00
2023-11-19T22:33:10.174Z,100.00
2023-11-19T22:35:37.852Z,100.00
2023-11-19T22:38:05.171Z,100.00
2023-11-19T22:40:33.885Z,100.00
2023-11-19T22:43:01.022Z,100.00
2023-11-19T22:45:28.515Z,100.00
2023-11-19T22:47:55.825Z,100.00
2023-11-19T22:50:23.172Z,100.00
2023-11-19T22:52:50.428Z,100.00
2023-11-19T22:55:17.593Z,100.00
2023-11-19T23:00:29.392Z,99.81
2023-11-19T23:02:58.739Z,100.00
2023-11-19T23:05:31.393Z,99.01
2023-11-19T23:08:01.964Z,98.80
2023-11-19T23:10:29.281Z,98.37
2023-11-19T23:12:58.803Z,98.32
2023-11-19T23:15:27.177Z,98.62
2023-11-19T23:17:54.701Z,98.16
2023-11-19T23:20:22.622Z,98.82
2023-11-19T23:22:51.008Z,99.38
2023-11-19T23:25:18.224Z,99.05
2023-11-19T23:27:46.148Z,100.00
2023-11-19T23:30:17.108Z,100.00
2023-11-19T23:32:44.436Z,98.91
2023-11-19T23:35:12.802Z,98.82
2023-11-19T23:37:42.380Z,98.96
2023-11-19T23:40:10.017Z,98.38
2023-11-19T23:42:37.207Z,98.23
2023-11-19T23:45:04.770Z,97.74
2023-11-19T23:47:32.601Z,97.95
2023-11-19T23:49:59.987Z,97.52
2023-11-19T23:52:27.232Z,97.14
2023-11-19T23:54:54.465Z,97.00
2023-11-19T23:57:22.778Z,97.61
2023-11-19T23:59:50.123Z,98.05
